createdAt,value
2019-06-20T04:48:21.605Z,10.0
2019-06-20T04:51:23.796Z,9.5
2019-06-20T04:54:25.881Z,9.5
2019-06-20T04:57:27.984Z,9.5
2019-06-20T05:00:30.137Z,9.4
2019-06-20T05:03:32.248Z,9.4
2019-06-20T05:06:34.324Z,9.5
2019-06-20T05:09:47.947Z,9.5
2019-06-20T05:12:50.023Z,9.5
2019-06-20T05:15:53.565Z,9.6
2019-06-20T05:18:55.703Z,9.6
2019-06-20T05:22:02.829Z,10.0
2019-06-20T05:25:04.958Z,10.0
2019-06-20T05:28:07.072Z,10.2
2019-06-20T05:31:09.372Z,10.4
2019-06-20T05:34:11.486Z,10.6
2019-06-20T05:37:13.872Z,10.7
2019-06-20T05:40:15.952Z,10.9
2019-06-20T05:43:20.714Z,11.1
2019-06-20T05:46:22.931Z,11.1
2019-06-20T05:49:45.418Z,11.2
2019-06-20T05:52:47.975Z,11.3
2019-06-20T05:55:50.463Z,11.4
2019-06-20T05:58:52.704Z,11.5
2019-06-20T06:01:56.328Z,11.9
2019-06-20T06:04:58.787Z,13.0
2019-06-20T06:08:00.867Z,14.1
2019-06-20T06:11:02.972Z,14.2
2019-06-20T06:14:05.682Z,14.0
2019-06-20T06:17:08.077Z,13.9
2019-06-20T06:20:10.436Z,13.8
2019-06-20T06:23:16.758Z,13.6
2019-06-20T06:26:18.947Z,13.8
2019-06-20T06:29:21.055Z,14.4
2019-06-20T06:32:39.142Z,15.7
2019-06-20T06:35:42.929Z,15.6
2019-06-20T06:38:45.050Z,16.6
2019-06-20T06:41:47.193Z,17.3
2019-06-20T06:44:49.661Z,17.8
2019-06-20T06:47:52.412Z,18.2
2019-06-20T06:50:57.182Z,18.6
2019-06-20T06:53:59.569Z,18.5
2019-06-20T06:57:01.633Z,18.6
2019-06-20T07:00:03.763Z,18.8
2019-06-20T07:03:05.875Z,18.8
2019-06-20T07:06:08.087Z,19.2
2019-06-20T07:09:10.393Z,19.4
2019-06-20T07:12:15.044Z,19.9
2019-06-20T07:15:17.302Z,19.9
2019-06-20T07:18:19.396Z,20.1
2019-06-20T07:21:21.817Z,20.1
2019-06-20T07:24:24.009Z,20.1
2019-06-20T07:27:26.221Z,20.0
2019-06-20T07:30:33.358Z,20.5
2019-06-20T07:33:35.526Z,20.5
2019-06-20T07:36:37.764Z,20.9
2019-06-20T07:39:40.007Z,21.2
2019-06-20T07:42:42.358Z,21.1
2019-06-20T07:46:01.381Z,21.4
2019-06-20T07:49:05.282Z,21.3
2019-06-20T07:52:07.508Z,21.1
2019-06-20T07:55:09.754Z,21.1
2019-06-20T07:58:11.939Z,21.1
2019-06-20T08:01:14.150Z,21.4
2019-06-20T08:04:16.322Z,21.1
2019-06-20T08:07:21.231Z,21.6
2019-06-20T08:10:23.384Z,21.6
2019-06-20T08:13:33.119Z,22.1
2019-06-20T08:16:35.405Z,22.1
2019-06-20T08:19:37.538Z,22.3
2019-06-20T08:22:40.826Z,22.2
2019-06-20T08:25:43.182Z,22.6
2019-06-20T08:28:45.439Z,22.9
2019-06-20T08:31:52.989Z,23.2
2019-06-20T08:34:56.605Z,23.4
2019-06-20T08:38:03.447Z,23.0
2019-06-20T08:41:07.515Z,23.0
2019-06-20T08:44:09.602Z,23.3
2019-06-20T08:47:14.223Z,22.9
2019-06-20T08:50:16.327Z,22.9
2019-06-20T08:53:18.422Z,22.9
2019-06-20T08:56:20.586Z,22.0
2019-06-20T08:59:24.586Z,22.5
2019-06-20T09:02:30.313Z,22.8
2019-06-20T09:05:36.298Z,22.5
2019-06-20T09:08:38.594Z,22.5
2019-06-20T09:11:40.663Z,22.8
2019-06-20T09:14:42.737Z,22.5
2019-06-20T09:17:45.330Z,22.6
2019-06-20T09:20:47.391Z,23.0
2019-06-20T09:23:51.490Z,22.6
2019-06-20T09:26:57.206Z,22.1
2019-06-20T09:30:00.466Z,21.9
2019-06-20T09:33:05.482Z,22.5
2019-06-20T09:36:07.625Z,22.5
2019-06-20T09:39:09.780Z,22.5
2019-06-20T09:42:11.867Z,22.5
2019-06-20T09:45:14.200Z,22.3
2019-06-20T09:48:19.122Z,22.1
2019-06-20T09:51:25.438Z,22.1
2019-06-20T09:54:28.563Z,22.2
2019-06-20T09:57:33.280Z,22.2
2019-06-20T10:00:35.530Z,22.2
2019-06-20T10:03:37.688Z,22.2
2019-06-20T10:06:40.781Z,22.4
2019-06-20T10:09:44.036Z,22.6
2019-06-20T10:12:49.652Z,22.8
2019-06-20T10:15:51.878Z,22.6
2019-06-20T10:18:56.466Z,22.1
2019-06-20T10:21:58.701Z,22.2
2019-06-20T10:25:00.833Z,22.1
2019-06-20T10:28:03.019Z,22.0
2019-06-20T10:31:05.164Z,21.7
2019-06-20T10:34:07.315Z,21.5
2019-06-20T10:37:09.369Z,21.4
2019-06-20T10:40:11.623Z,21.3
2019-06-20T10:43:17.861Z,21.0
2019-06-20T10:46:21.096Z,20.4
2019-06-20T10:49:23.241Z,20.1
2019-06-20T10:52:25.351Z,19.9
2019-06-20T10:55:27.638Z,19.6
2019-06-20T10:58:31.478Z,19.3
2019-06-20T11:01:36.591Z,18.8
2019-06-20T11:04:40.461Z,18.8
2019-06-20T11:07:47.541Z,18.8
2019-06-20T11:10:50.058Z,18.9
2019-06-20T11:13:54.755Z,18.8
2019-06-20T11:16:57.008Z,18.7
2019-06-20T11:19:59.091Z,18.4
2019-06-20T11:23:01.424Z,18.2
2019-06-20T11:26:03.652Z,18.2
2019-06-20T11:29:05.803Z,18.3
2019-06-20T11:32:09.420Z,18.1
2019-06-20T11:35:12.687Z,17.7
2019-06-20T11:38:15.067Z,17.4
2019-06-20T11:41:18.587Z,17.4
2019-06-20T11:44:20.739Z,17.5
2019-06-20T11:47:22.854Z,17.4
2019-06-20T11:50:24.989Z,16.8
2019-06-20T11:53:27.099Z,16.3
2019-06-20T11:56:29.321Z,16.2
2019-06-20T11:59:31.511Z,15.6
2019-06-20T12:02:35.320Z,15.3
2019-06-20T12:05:38.407Z,15.2
2019-06-20T12:08:45.187Z,15.3
2019-06-20T12:11:48.925Z,15.4
2019-06-20T12:14:53.498Z,16.7
2019-06-20T12:17:55.569Z,16.6
2019-06-20T12:20:57.629Z,17.5
2019-06-20T12:23:59.545Z,18.0
2019-06-20T12:27:01.621Z,18.0
2019-06-20T12:30:03.759Z,18.4
2019-06-20T12:33:05.903Z,18.9
2019-06-20T12:36:10.394Z,19.4
2019-06-20T12:39:14.036Z,19.5
2019-06-20T12:42:16.216Z,20.4
2019-06-20T12:45:23.368Z,19.9
2019-06-20T12:48:25.410Z,19.8
2019-06-20T12:51:27.475Z,19.4
2019-06-20T12:54:32.135Z,18.6
2019-06-20T12:57:34.749Z,18.6
2019-06-20T13:00:41.571Z,18.1
2019-06-20T13:03:47.982Z,18.1
2019-06-20T13:06:52.720Z,17.9
2019-06-20T13:09:54.784Z,17.8
2019-06-20T13:13:02.006Z,17.6
2019-06-20T13:16:04.064Z,17.6
2019-06-20T13:19:06.212Z,17.6
2019-06-20T13:22:11.716Z,17.6
2019-06-20T13:25:16.201Z,17.5
2019-06-20T13:28:18.420Z,17.6
2019-06-20T13:31:47.063Z,17.3
2019-06-20T13:35:05.621Z,17.0
2019-06-20T13:38:07.719Z,16.9
2019-06-20T13:41:14.028Z,17.1
2019-06-20T13:44:20.046Z,17.1
2019-06-20T13:47:23.655Z,17.1
2019-06-20T13:50:25.668Z,17.0
2019-06-20T13:53:27.635Z,17.2
2019-06-20T13:56:29.638Z,17.3
2019-06-20T13:59:31.732Z,18.1
2019-06-20T14:02:41.330Z,19.5
2019-06-20T14:05:47.226Z,19.5
2019-06-20T14:08:50.193Z,19.2
2019-06-20T14:11:53.820Z,18.6
2019-06-20T14:14:58.696Z,18.2
2019-06-20T14:18:00.682Z,18.1
2019-06-20T14:21:02.846Z,18.0
2019-06-20T14:24:04.963Z,17.7
2019-06-20T14:27:09.543Z,17.4
2019-06-20T14:30:11.741Z,17.3
2019-06-20T14:33:17.851Z,17.3
2019-06-20T14:36:20.070Z,17.1
2019-06-20T14:39:25.325Z,17.0
2019-06-20T14:42:28.681Z,16.9
2019-06-20T14:45:30.928Z,16.5
2019-06-20T14:48:33.085Z,16.2
2019-06-20T14:51:35.082Z,16.1
2019-06-20T14:54:43.952Z,16.1
2019-06-20T14:57:48.463Z,16.1
2019-06-20T15:00:52.429Z,16.1
2019-06-20T15:03:55.918Z,16.0
2019-06-20T15:07:03.120Z,15.4
2019-06-20T15:10:05.132Z,15.4
2019-06-20T15:13:07.170Z,15.0
2019-06-20T15:16:09.158Z,14.5
2019-06-20T15:19:13.780Z,14.5
2019-06-20T15:22:18.867Z,14.5
2019-06-20T15:25:24.098Z,14.5
2019-06-20T15:28:27.634Z,14.6
2019-06-20T15:31:29.892Z,14.8
2019-06-20T15:34:32.001Z,14.8
2019-06-20T15:37:34.336Z,14.9
2019-06-20T15:40:36.441Z,15.0
2019-06-20T15:43:38.443Z,15.4
2019-06-20T15:46:40.542Z,16.0
2019-06-20T15:49:42.657Z,16.9
2019-06-20T15:52:45.041Z,17.5
2019-06-20T15:55:47.099Z,17.6
2019-06-20T15:58:49.286Z,18.3
2019-06-20T16:01:51.473Z,18.3
2019-06-20T16:04:54.021Z,18.7
2019-06-20T16:08:03.639Z,18.5
2019-06-20T16:11:05.675Z,18.5
2019-06-20T16:14:07.604Z,18.9
2019-06-20T16:17:09.674Z,18.8
2019-06-20T16:20:11.743Z,18.9
2019-06-20T16:23:13.848Z,19.3
2019-06-20T16:26:16.275Z,19.4
2019-06-20T16:29:18.288Z,19.9
2019-06-20T16:32:20.499Z,19.8
2019-06-20T16:35:24.967Z,19.1
2019-06-20T16:38:26.961Z,19.0
2019-06-20T16:41:28.980Z,19.0
2019-06-20T16:44:31.062Z,18.9
2019-06-20T16:47:34.129Z,18.8
2019-06-20T16:50:36.285Z,18.4
2019-06-20T16:53:38.430Z,17.9
2019-06-20T16:56:40.499Z,17.5
2019-06-20T16:59:42.679Z,17.0
2019-06-20T17:02:50.178Z,15.9
2019-06-20T17:05:52.386Z,15.9
2019-06-20T17:08:54.409Z,15.7
2019-06-20T17:11:58.972Z,15.3
2019-06-20T17:15:01.114Z,15.3
2019-06-20T17:18:03.338Z,15.2
2019-06-20T17:21:05.755Z,15.3
2019-06-20T17:24:07.891Z,15.3
2019-06-20T17:27:09.916Z,15.1
2019-06-20T17:30:14.563Z,15.3
2019-06-20T17:33:16.719Z,15.3
2019-06-20T17:36:29.426Z,15.3
2019-06-20T17:39:31.532Z,15.3
2019-06-20T17:42:39.959Z,15.6
2019-06-20T17:45:42.004Z,15.6
2019-06-20T17:48:44.085Z,15.7
2019-06-20T17:51:46.224Z,15.8
2019-06-20T17:54:48.263Z,15.9
2019-06-20T17:57:50.492Z,16.0
2019-06-20T18:00:52.538Z,16.0
2019-06-20T18:03:54.654Z,16.1
2019-06-20T18:06:58.510Z,16.1
2019-06-20T18:10:00.525Z,15.8
2019-06-20T18:13:02.623Z,15.6
2019-06-20T18:16:07.283Z,15.5
2019-06-20T18:19:26.064Z,15.4
2019-06-20T18:22:28.217Z,15.3
2019-06-20T18:25:31.721Z,15.3
2019-06-20T18:28:34.021Z,15.2
2019-06-20T18:31:36.145Z,15.2
2019-06-20T18:34:38.314Z,15.1
2019-06-20T18:37:40.398Z,14.9
2019-06-20T18:40:42.535Z,14.9
2019-06-20T18:43:44.664Z,14.8
2019-06-20T18:46:49.312Z,14.7
2019-06-20T18:49:53.752Z,14.7
2019-06-20T18:52:55.896Z,14.8
2019-06-20T18:55:58.010Z,14.8
2019-06-20T18:59:00.163Z,14.7
2019-06-20T19:02:04.377Z,14.6
2019-06-20T19:05:06.543Z,14.5
2019-06-20T19:08:08.777Z,14.6
2019-06-20T19:11:10.806Z,14.7
2019-06-20T19:14:13.015Z,14.7
2019-06-20T19:17:15.137Z,14.7
2019-06-20T19:20:17.404Z,14.7
2019-06-20T19:23:19.423Z,14.5
2019-06-20T19:26:21.753Z,14.4
2019-06-20T19:29:23.767Z,14.3
2019-06-20T19:32:25.775Z,14.3
2019-06-20T19:35:27.846Z,14.3
2019-06-20T19:38:29.828Z,14.3
2019-06-20T19:41:31.848Z,14.2
2019-06-20T19:44:33.959Z,14.4
2019-06-20T19:47:37.781Z,14.4
2019-06-20T19:50:43.580Z,14.3
2019-06-20T19:53:45.971Z,14.3
2019-06-20T19:56:48.142Z,14.3
2019-06-20T19:59:50.417Z,14.4
2019-06-20T20:02:52.639Z,14.5
2019-06-20T20:05:58.021Z,14.3
2019-06-20T20:09:00.848Z,14.1
2019-06-20T20:12:03.083Z,14.1
2019-06-20T20:15:05.214Z,14.1
2019-06-20T20:18:07.245Z,14.2
2019-06-20T20:21:09.360Z,14.0
2019-06-20T20:24:11.397Z,14.0
2019-06-20T20:27:13.416Z,14.0
2019-06-20T20:30:15.451Z,14.0
2019-06-20T20:33:20.054Z,13.9
2019-06-20T20:36:25.110Z,13.9
2019-06-20T20:36:55.967Z,13.9
2019-06-20T20:39:57.863Z,13.8
2019-06-20T20:42:59.867Z,13.8
2019-06-20T20:46:04.554Z,13.8
2019-06-20T20:49:06.615Z,13.7
2019-06-20T20:52:08.798Z,13.8
2019-06-20T20:55:10.905Z,13.8
2019-06-20T20:58:12.952Z,13.9
2019-06-20T21:01:14.943Z,14.0
2019-06-20T21:04:22.444Z,14.0
2019-06-20T21:07:24.498Z,14.0
2019-06-20T21:10:34.198Z,14.1
2019-06-20T21:13:36.224Z,14.1
2019-06-20T21:16:38.329Z,14.2
2019-06-20T21:19:40.600Z,14.2
2019-06-20T21:22:45.651Z,14.2
2019-06-20T21:25:47.818Z,14.1
2019-06-20T21:28:52.545Z,14.0
2019-06-20T21:31:54.658Z,14.0
2019-06-20T21:34:56.719Z,14.0
2019-06-20T21:37:59.698Z,13.9
2019-06-20T21:41:01.785Z,13.9
2019-06-20T21:44:11.575Z,13.9
2019-06-20T21:47:13.590Z,13.9
2019-06-20T21:50:18.172Z,13.9
2019-06-20T21:53:20.351Z,13.8
2019-06-20T21:56:22.352Z,13.9
2019-06-20T21:59:24.468Z,13.8
2019-06-20T22:02:26.828Z,13.9
2019-06-20T22:05:28.924Z,13.8
2019-06-20T22:08:31.037Z,13.8
2019-06-20T22:11:36.010Z,13.7
2019-06-20T22:14:38.161Z,13.7
2019-06-20T22:17:40.478Z,13.6
2019-06-20T22:20:42.578Z,13.6
2019-06-20T22:23:44.749Z,13.6
2019-06-20T22:26:46.773Z,13.7
2019-06-20T22:29:48.808Z,13.7
2019-06-20T22:33:19.860Z,13.8
2019-06-20T22:36:21.867Z,13.8
2019-06-20T22:39:23.983Z,13.8
2019-06-20T22:42:26.001Z,13.7
2019-06-20T22:45:28.222Z,13.7
2019-06-20T22:48:30.208Z,13.8
2019-06-20T22:51:32.278Z,13.7
2019-06-20T22:54:34.700Z,13.7
2019-06-20T22:57:37.237Z,13.6
2019-06-20T23:00:39.860Z,13.6
2019-06-20T23:03:41.996Z,13.6
2019-06-20T23:06:55.686Z,13.6
2019-06-20T23:10:10.181Z,13.6
2019-06-20T23:13:13.576Z,13.6
2019-06-20T23:16:15.593Z,13.5
2019-06-20T23:19:17.622Z,13.6
2019-06-20T23:22:19.955Z,13.6
2019-06-20T23:25:24.647Z,13.5
2019-06-20T23:28:26.675Z,13.5
2019-06-20T23:31:28.639Z,13.5
2019-06-20T23:34:30.766Z,13.5
2019-06-20T23:37:33.818Z,13.5
2019-06-20T23:40:37.384Z,13.5
2019-06-20T23:43:39.504Z,13.5
2019-06-20T23:46:41.647Z,13.4
2019-06-20T23:49:43.766Z,13.3
2019-06-20T23:52:46.450Z,13.3
2019-06-20T23:55:48.535Z,13.3
2019-06-20T23:58:50.646Z,13.4
